createdAt,value
2023-03-24T00:01:03.669Z,28.28
2023-03-24T00:02:07.381Z,28.26
2023-03-24T00:03:10.831Z,28.25
2023-03-24T00:04:12.872Z,28.24
2023-03-24T00:05:21.732Z,28.26
2023-03-24T00:06:23.684Z,28.24
2023-03-24T00:07:26.184Z,28.24
2023-03-24T00:08:36.545Z,28.25
2023-03-24T00:09:38.657Z,28.24
2023-03-24T00:10:42.614Z,28.22
2023-03-24T00:11:45.435Z,28.20
2023-03-24T00:12:48.647Z,28.20
2023-03-24T00:13:50.927Z,28.20
2023-03-24T00:14:55.707Z,28.19
2023-03-24T00:15:58.576Z,28.19
2023-03-24T00:17:00.575Z,28.19
2023-03-24T00:18:02.460Z,28.18
2023-03-24T00:19:04.934Z,28.16
2023-03-24T00:20:16.074Z,28.20
2023-03-24T00:21:18.360Z,28.18
2023-03-24T00:22:21.294Z,28.16
2023-03-24T00:23:23.571Z,28.16
2023-03-24T00:24:25.514Z,28.15
2023-03-24T00:25:33.833Z,28.16
2023-03-24T00:26:38.544Z,28.14
2023-03-24T00:27:40.387Z,28.12
2023-03-24T00:28:48.989Z,28.15
2023-03-24T00:29:50.887Z,28.13
2023-03-24T00:30:52.771Z,28.11
2023-03-24T00:31:55.292Z,28.11
2023-03-24T00:32:58.996Z,28.09
2023-03-24T00:34:02.918Z,28.11
2023-03-24T00:35:09.798Z,28.13
2023-03-24T00:36:12.622Z,28.08
2023-03-24T00:37:14.495Z,28.08
2023-03-24T00:38:16.368Z,28.08
2023-03-24T00:39:20.537Z,28.09
2023-03-24T00:40:22.622Z,28.08
2023-03-24T00:41:26.951Z,28.08
2023-03-24T00:42:29.340Z,28.07
2023-03-24T00:43:31.650Z,28.07
2023-03-24T00:44:34.338Z,28.07
2023-03-24T00:45:36.270Z,28.06
2023-03-24T00:46:39.003Z,28.05
2023-03-24T00:47:41.409Z,28.05
2023-03-24T00:48:43.308Z,28.02
2023-03-24T00:49:45.163Z,28.04
2023-03-24T00:50:52.100Z,28.04
2023-03-24T00:51:54.023Z,28.02
2023-03-24T00:52:58.179Z,28.01
2023-03-24T00:54:01.864Z,28.02
2023-03-24T00:55:06.530Z,28.02
2023-03-24T00:56:09.137Z,27.99
2023-03-24T00:57:13.007Z,27.98
2023-03-24T00:58:18.199Z,27.99
2023-03-24T00:59:21.331Z,27.99
2023-03-24T01:00:26.224Z,27.99
2023-03-24T01:01:35.406Z,27.99
2023-03-24T01:02:37.885Z,27.98
2023-03-24T01:03:48.145Z,27.98
2023-03-24T01:04:56.413Z,27.98
2023-03-24T01:06:03.991Z,27.97
2023-03-24T01:07:10.711Z,27.95
2023-03-24T01:08:12.917Z,27.93
2023-03-24T01:09:14.732Z,27.93
2023-03-24T01:10:17.136Z,27.93
2023-03-24T01:11:19.114Z,27.93
2023-03-24T01:12:21.759Z,27.92
2023-03-24T01:13:29.734Z,27.94
2023-03-24T01:14:32.903Z,27.92
2023-03-24T01:15:36.528Z,27.92
2023-03-24T01:16:38.932Z,27.90
2023-03-24T01:17:41.095Z,27.91
2023-03-24T01:18:43.030Z,27.89
2023-03-24T01:19:45.339Z,27.88
2023-03-24T01:20:51.449Z,27.89
2023-03-24T01:21:54.476Z,27.88
2023-03-24T01:22:56.322Z,27.89
2023-03-24T01:23:58.133Z,27.88
2023-03-24T01:25:00.799Z,27.86
2023-03-24T01:26:10.563Z,27.89
2023-03-24T01:27:13.261Z,27.87
2023-03-24T01:28:24.721Z,27.88
2023-03-24T01:29:26.580Z,27.86
2023-03-24T01:30:30.515Z,27.87
2023-03-24T01:31:34.101Z,27.85
2023-03-24T01:32:36.230Z,27.85
2023-03-24T01:33:38.736Z,27.83
2023-03-24T01:34:40.675Z,27.84
2023-03-24T01:35:42.649Z,27.82
2023-03-24T01:36:44.630Z,27.82
2023-03-24T01:37:46.645Z,27.82
2023-03-24T01:38:51.402Z,27.81
2023-03-24T01:39:53.342Z,27.81
2023-03-24T01:40:55.480Z,27.80
2023-03-24T01:41:57.526Z,27.81
2023-03-24T01:43:00.193Z,27.80
2023-03-24T01:44:24.416Z,27.84
2023-03-24T01:45:41.455Z,27.84
2023-03-24T01:46:43.316Z,27.81
2023-03-24T01:47:45.346Z,27.78
2023-03-24T01:49:06.606Z,27.80
2023-03-24T01:50:08.542Z,27.78
2023-03-24T01:51:30.644Z,27.77
2023-03-24T01:52:36.721Z,27.78
2023-03-24T01:53:47.536Z,27.78
2023-03-24T01:55:03.653Z,27.78
2023-03-24T01:56:07.669Z,27.75
2023-03-24T01:57:18.947Z,27.76
2023-03-24T01:58:25.248Z,27.76
2023-03-24T01:59:34.660Z,27.76
2023-03-24T02:00:37.967Z,27.73
2023-03-24T02:01:40.082Z,27.70
2023-03-24T02:02:54.965Z,27.71
2023-03-24T02:04:00.212Z,27.73
2023-03-24T02:05:12.085Z,27.72
2023-03-24T02:06:16.341Z,27.70
2023-03-24T02:08:12.922Z,27.77
2023-03-24T02:09:15.493Z,27.70
2023-03-24T02:10:20.458Z,27.68
2023-03-24T02:11:27.107Z,27.67
2023-03-24T02:12:32.187Z,27.67
2023-03-24T02:13:34.212Z,27.67
2023-03-24T02:14:36.449Z,27.65
2023-03-24T02:16:14.046Z,27.72
2023-03-24T02:17:41.024Z,27.71
2023-03-24T02:19:19.672Z,27.69
2023-03-24T02:20:51.956Z,27.67
2023-03-24T02:22:28.802Z,27.69
2023-03-24T02:23:50.109Z,27.61
2023-03-24T02:25:16.410Z,27.62
2023-03-24T02:27:02.263Z,27.65
2023-03-24T02:29:05.177Z,27.65
2023-03-24T02:30:28.325Z,27.56
2023-03-24T02:31:51.160Z,27.57
2023-03-24T02:33:32.634Z,27.58
2023-03-24T02:35:12.208Z,27.56
2023-03-24T02:36:26.278Z,27.51
2023-03-24T02:37:56.377Z,27.52
2023-03-24T02:39:42.669Z,27.51
2023-03-24T02:40:56.313Z,27.49
2023-03-24T02:42:32.285Z,27.51
2023-03-24T02:43:55.191Z,27.49
2023-03-24T02:45:29.625Z,27.49
2023-03-24T02:46:42.620Z,27.44
2023-03-24T02:48:41.541Z,27.47
2023-03-24T02:50:14.622Z,27.48
2023-03-24T02:52:12.925Z,27.47
2023-03-24T02:54:17.787Z,27.49
2023-03-24T02:55:40.785Z,27.44
2023-03-24T02:56:50.446Z,27.40
2023-03-24T02:58:08.299Z,27.39
2023-03-24T02:59:50.788Z,27.39
2023-03-24T03:01:05.590Z,27.39
2023-03-24T03:02:19.267Z,27.38
2023-03-24T03:03:38.354Z,27.37
2023-03-24T03:04:52.411Z,27.38
2023-03-24T03:06:07.167Z,27.35
2023-03-24T03:07:12.744Z,27.34
2023-03-24T03:08:21.527Z,27.36
2023-03-24T03:09:26.700Z,27.34
2023-03-24T03:10:36.469Z,27.35
2023-03-24T03:11:48.094Z,27.34
2023-03-24T03:12:57.282Z,27.36
2023-03-24T03:14:25.876Z,27.39
2023-03-24T03:15:39.728Z,27.37
2023-03-24T03:16:59.970Z,27.37
2023-03-24T03:18:22.895Z,27.37
2023-03-24T03:19:52.675Z,27.37
2023-03-24T03:21:02.077Z,27.35
2023-03-24T03:22:12.121Z,27.35
2023-03-24T03:23:19.026Z,27.34
2023-03-24T03:24:39.109Z,27.34
2023-03-24T03:25:50.292Z,27.34
2023-03-24T03:26:57.461Z,27.33
2023-03-24T03:28:03.658Z,27.31
2023-03-24T03:29:22.150Z,27.32
2023-03-24T03:30:41.777Z,27.34
2023-03-24T03:31:53.406Z,27.32
2023-03-24T03:33:25.122Z,27.34
2023-03-24T03:34:47.064Z,27.33
2023-03-24T03:35:59.222Z,27.32
2023-03-24T03:37:11.101Z,27.29
2023-03-24T03:38:31.473Z,27.30
2023-03-24T03:39:40.796Z,27.29
2023-03-24T03:40:52.752Z,27.28
2023-03-24T03:41:56.002Z,27.28
2023-03-24T03:42:58.568Z,27.26
2023-03-24T03:44:01.407Z,27.25
2023-03-24T03:45:03.931Z,27.24
2023-03-24T03:46:07.298Z,27.24
2023-03-24T03:47:09.353Z,27.23
2023-03-24T03:48:11.650Z,27.22
2023-03-24T03:49:13.698Z,27.26
2023-03-24T03:50:15.959Z,27.23
2023-03-24T03:51:18.375Z,27.24
2023-03-24T03:52:21.750Z,27.24
2023-03-24T03:53:31.737Z,27.26
2023-03-24T03:54:36.124Z,27.26
2023-03-24T03:55:38.282Z,27.25
2023-03-24T03:56:41.945Z,27.23
2023-03-24T03:57:44.668Z,27.22
2023-03-24T03:58:48.496Z,27.22
2023-03-24T03:59:50.368Z,27.21
2023-03-24T04:00:57.688Z,27.23
2023-03-24T04:02:26.854Z,27.28
2023-03-24T04:04:09.085Z,27.30
2023-03-24T04:05:26.534Z,27.27
2023-03-24T04:06:50.397Z,27.26
2023-03-24T04:08:16.359Z,27.27
2023-03-24T04:09:46.951Z,27.26
2023-03-24T04:11:22.743Z,27.25
2023-03-24T04:12:57.288Z,27.26
2023-03-24T04:14:09.584Z,27.21
2023-03-24T04:15:40.461Z,27.22
2023-03-24T04:17:12.623Z,27.20
2023-03-24T04:18:40.151Z,27.22
2023-03-24T04:20:15.089Z,27.21
2023-03-24T04:21:48.554Z,27.18
2023-03-24T04:23:14.865Z,27.18
2023-03-24T04:24:40.240Z,27.18
2023-03-24T04:26:18.072Z,27.18
2023-03-24T04:27:46.534Z,27.18
2023-03-24T04:29:17.860Z,27.17
2023-03-24T04:30:47.774Z,27.17
2023-03-24T04:32:11.342Z,27.14
2023-03-24T04:33:22.597Z,27.09
2023-03-24T04:34:36.042Z,27.10
2023-03-24T04:35:46.505Z,27.09
2023-03-24T04:37:02.713Z,27.09
2023-03-24T04:38:13.003Z,27.08
2023-03-24T04:39:28.080Z,27.08
2023-03-24T04:40:34.287Z,27.07
2023-03-24T04:41:37.796Z,27.06
2023-03-24T04:42:49.073Z,27.08
2023-03-24T04:43:53.197Z,27.07
2023-03-24T04:44:57.795Z,27.06
2023-03-24T04:45:59.710Z,27.02
2023-03-24T04:47:04.728Z,27.06
2023-03-24T04:48:10.844Z,27.09
2023-03-24T04:49:12.698Z,27.05
2023-03-24T04:50:14.775Z,27.03
2023-03-24T04:51:20.549Z,27.06
2023-03-24T04:52:22.356Z,27.06
2023-03-24T04:53:24.946Z,27.05
2023-03-24T04:54:28.002Z,27.06
2023-03-24T04:55:50.986Z,27.11
2023-03-24T04:56:56.935Z,27.09
2023-03-24T04:57:59.114Z,27.06
2023-03-24T04:59:01.016Z,27.06
2023-03-24T05:00:08.210Z,27.06
2023-03-24T05:01:10.195Z,27.06
2023-03-24T05:02:12.444Z,27.05
2023-03-24T05:03:16.118Z,27.06
2023-03-24T05:04:23.916Z,27.08
2023-03-24T05:05:25.822Z,27.08
2023-03-24T05:06:27.696Z,27.08
2023-03-24T05:07:29.556Z,27.06
2023-03-24T05:08:31.793Z,27.08
2023-03-24T05:09:33.791Z,27.09
2023-03-24T05:10:36.580Z,27.09
2023-03-24T05:11:38.379Z,27.09
2023-03-24T05:12:40.144Z,27.11
2023-03-24T05:13:41.924Z,27.10
2023-03-24T05:14:43.690Z,27.10
2023-03-24T05:15:46.478Z,27.12
2023-03-24T05:16:48.625Z,27.13
2023-03-24T05:17:51.814Z,27.13
2023-03-24T05:18:53.687Z,27.14
2023-03-24T05:19:55.421Z,27.16
2023-03-24T05:20:57.339Z,27.17
2023-03-24T05:21:59.168Z,27.18
2023-03-24T05:23:01.848Z,27.18
2023-03-24T05:24:04.048Z,27.18
2023-03-24T05:25:06.692Z,27.18
2023-03-24T05:26:09.310Z,27.20
2023-03-24T05:27:11.201Z,27.21
2023-03-24T05:28:12.978Z,27.20
2023-03-24T05:29:14.803Z,27.22
2023-03-24T05:30:17.529Z,27.23
2023-03-24T05:31:19.534Z,27.22
2023-03-24T05:32:21.329Z,27.24
2023-03-24T05:33:23.306Z,27.24
2023-03-24T05:34:25.350Z,27.24
2023-03-24T05:35:27.200Z,27.26
2023-03-24T05:36:29.006Z,27.26
2023-03-24T05:37:31.148Z,27.26
2023-03-24T05:38:32.955Z,27.26
2023-03-24T05:39:34.698Z,27.28
2023-03-24T05:40:37.407Z,27.28
2023-03-24T05:41:39.221Z,27.26
2023-03-24T05:42:41.355Z,27.29
2023-03-24T05:43:43.130Z,27.29
2023-03-24T05:44:45.782Z,27.28
2023-03-24T05:45:47.925Z,27.31
2023-03-24T05:46:50.065Z,27.31
2023-03-24T05:47:52.073Z,27.29
2023-03-24T05:48:53.898Z,27.31
2023-03-24T05:49:55.698Z,27.32
2023-03-24T05:50:57.552Z,27.33
2023-03-24T05:52:00.311Z,27.32
2023-03-24T05:53:02.131Z,27.33
2023-03-24T05:54:06.036Z,27.31
2023-03-24T05:55:09.456Z,27.33
2023-03-24T05:56:11.960Z,27.33
2023-03-24T05:57:16.544Z,27.35
2023-03-24T05:58:19.987Z,27.34
2023-03-24T05:59:22.868Z,27.34
2023-03-24T06:00:24.731Z,27.35
2023-03-24T06:01:28.841Z,27.35
2023-03-24T06:02:30.705Z,27.34
2023-03-24T06:03:34.685Z,27.36
2023-03-24T06:04:36.992Z,27.37
2023-03-24T06:05:38.878Z,27.37
2023-03-24T06:06:41.068Z,27.37
2023-03-24T06:07:43.384Z,27.37
2023-03-24T06:08:45.329Z,27.38
2023-03-24T06:09:47.505Z,27.39
2023-03-24T06:10:49.576Z,27.39
2023-03-24T06:11:51.474Z,27.39
2023-03-24T06:12:55.373Z,27.39
2023-03-24T06:14:00.119Z,27.40
2023-03-24T06:15:02.076Z,27.39
2023-03-24T06:16:04.166Z,27.40
2023-03-24T06:17:08.370Z,27.40
2023-03-24T06:18:10.171Z,27.39
2023-03-24T06:19:11.936Z,27.40
2023-03-24T06:20:18.602Z,27.40
2023-03-24T06:21:22.029Z,27.41
2023-03-24T06:22:24.119Z,27.40
2023-03-24T06:23:28.249Z,27.42
2023-03-24T06:24:30.522Z,27.41
2023-03-24T06:25:33.625Z,27.41
2023-03-24T06:26:35.475Z,27.41
2023-03-24T06:27:38.086Z,27.42
2023-03-24T06:28:42.198Z,27.41
2023-03-24T06:29:44.054Z,27.38
2023-03-24T06:30:47.494Z,27.38
2023-03-24T06:31:49.370Z,27.40
2023-03-24T06:32:51.246Z,27.39
2023-03-24T06:33:53.663Z,27.38
2023-03-24T06:34:55.639Z,27.38
2023-03-24T06:35:57.613Z,27.39
2023-03-24T06:36:59.528Z,27.40
2023-03-24T06:38:01.504Z,27.39
2023-03-24T06:39:05.985Z,27.40
2023-03-24T06:40:11.190Z,27.41
2023-03-24T06:41:13.257Z,27.40
2023-03-24T06:42:16.017Z,27.40
2023-03-24T06:43:17.801Z,27.40
2023-03-24T06:44:19.629Z,27.39
2023-03-24T06:45:21.472Z,27.40
2023-03-24T06:46:24.081Z,27.41
2023-03-24T06:47:26.041Z,27.42
2023-03-24T06:48:28.288Z,27.41
2023-03-24T06:49:30.206Z,27.39
2023-03-24T06:50:34.562Z,27.39
2023-03-24T06:51:36.341Z,27.41
2023-03-24T06:52:38.407Z,27.42
2023-03-24T06:53:41.305Z,27.40
2023-03-24T06:54:43.135Z,27.41
2023-03-24T06:55:45.188Z,27.39
2023-03-24T06:56:47.213Z,27.39
2023-03-24T06:57:49.088Z,27.30
2023-03-24T06:58:51.563Z,27.37
2023-03-24T06:59:53.418Z,27.40
2023-03-24T07:00:55.275Z,27.38
2023-03-24T07:01:57.112Z,27.29
2023-03-24T07:02:59.103Z,27.37
2023-03-24T07:04:01.308Z,27.39
2023-03-24T07:05:09.580Z,27.33
2023-03-24T07:06:11.564Z,27.40
2023-03-24T07:07:41.466Z,27.44
2023-03-24T07:08:38.595Z,27.47
2023-03-24T07:09:40.686Z,27.49
2023-03-24T07:10:43.333Z,27.50
2023-03-24T07:11:45.501Z,27.50
2023-03-24T07:12:48.264Z,27.51
2023-03-24T07:13:50.256Z,27.51
2023-03-24T07:14:52.126Z,27.52
2023-03-24T07:15:54.268Z,27.52
2023-03-24T07:16:56.270Z,27.53
2023-03-24T07:17:58.201Z,27.54
2023-03-24T07:19:01.135Z,27.53
2023-03-24T07:20:07.951Z,27.55
2023-03-24T07:21:09.854Z,27.55
2023-03-24T07:22:12.357Z,27.54
2023-03-24T07:23:14.779Z,27.56
2023-03-24T07:24:17.744Z,27.56
2023-03-24T07:25:20.127Z,27.57
2023-03-24T07:26:22.035Z,27.58
2023-03-24T07:27:23.858Z,27.60
2023-03-24T07:28:26.451Z,27.58
2023-03-24T07:29:28.379Z,27.60
2023-03-24T07:30:39.319Z,27.61
2023-03-24T07:31:42.090Z,27.61
2023-03-24T07:32:44.018Z,27.63
2023-03-24T07:33:46.306Z,27.64
2023-03-24T07:34:49.672Z,27.64
2023-03-24T07:35:57.098Z,27.66
2023-03-24T07:37:00.695Z,27.66
2023-03-24T07:38:03.785Z,27.67
2023-03-24T07:39:05.563Z,27.66
2023-03-24T07:40:11.761Z,27.66
2023-03-24T07:41:13.485Z,27.68
2023-03-24T07:42:15.225Z,27.68
2023-03-24T07:43:17.162Z,27.69
2023-03-24T07:44:19.095Z,27.71
2023-03-24T07:45:20.972Z,27.71
2023-03-24T07:46:22.938Z,27.72
2023-03-24T07:47:26.082Z,27.73
2023-03-24T07:48:29.381Z,27.74
2023-03-24T07:49:31.421Z,27.76
2023-03-24T07:50:33.451Z,27.73
2023-03-24T07:51:38.544Z,27.79
2023-03-24T07:52:47.072Z,27.78
2023-03-24T07:53:48.937Z,27.79
2023-03-24T07:54:50.760Z,27.79
2023-03-24T07:55:52.844Z,27.80
2023-03-24T07:56:54.868Z,27.82
2023-03-24T07:57:56.743Z,27.83
2023-03-24T07:58:58.608Z,27.83
2023-03-24T08:00:00.759Z,27.85
2023-03-24T08:01:02.663Z,27.86
2023-03-24T08:02:05.207Z,27.84
2023-03-24T08:03:09.548Z,27.89
2023-03-24T08:04:14.449Z,27.91
2023-03-24T08:05:18.378Z,27.89
2023-03-24T08:06:20.499Z,27.89
2023-03-24T08:07:22.267Z,27.91
2023-03-24T08:08:24.173Z,27.89
2023-03-24T08:09:26.154Z,27.91
2023-03-24T08:10:30.833Z,27.93
2023-03-24T08:11:32.943Z,27.94
2023-03-24T08:12:34.742Z,27.95
2023-03-24T08:13:36.555Z,27.95
2023-03-24T08:14:38.334Z,27.97
2023-03-24T08:15:40.324Z,27.97
2023-03-24T08:16:42.257Z,27.98
2023-03-24T08:17:44.760Z,27.98
2023-03-24T08:18:48.621Z,27.98
2023-03-24T08:20:00.012Z,27.99
2023-03-24T08:21:03.697Z,28.04
2023-03-24T08:22:05.495Z,28.04
2023-03-24T08:23:08.410Z,28.05
2023-03-24T08:24:10.296Z,28.04
2023-03-24T08:25:13.109Z,28.06
2023-03-24T08:26:15.208Z,28.08
2023-03-24T08:27:17.333Z,28.08
2023-03-24T08:28:19.515Z,28.10
2023-03-24T08:29:21.291Z,28.10
2023-03-24T08:30:28.092Z,28.11
2023-03-24T08:31:35.734Z,28.16
2023-03-24T08:32:38.201Z,28.15
2023-03-24T08:33:40.452Z,28.13
2023-03-24T08:34:42.376Z,28.15
2023-03-24T08:35:46.643Z,28.17
2023-03-24T08:36:49.006Z,28.17
2023-03-24T08:37:51.609Z,28.17
2023-03-24T08:38:55.621Z,28.21
2023-03-24T08:39:58.907Z,28.21
2023-03-24T08:41:06.573Z,28.24
2023-03-24T08:42:08.448Z,28.23
2023-03-24T08:43:15.624Z,28.24
2023-03-24T08:44:17.613Z,28.24
2023-03-24T08:45:22.226Z,28.28
2023-03-24T08:46:24.125Z,28.27
2023-03-24T08:47:26.328Z,28.25
2023-03-24T08:48:30.455Z,28.31
2023-03-24T08:49:32.281Z,28.30
2023-03-24T08:50:38.780Z,28.33
2023-03-24T08:51:41.146Z,28.32
2023-03-24T08:52:42.980Z,28.32
2023-03-24T08:53:44.967Z,28.32
2023-03-24T08:54:47.023Z,28.36
2023-03-24T08:55:49.160Z,28.34
2023-03-24T08:56:51.265Z,28.37
2023-03-24T08:57:53.595Z,28.37
2023-03-24T08:58:55.533Z,28.37
2023-03-24T08:59:57.585Z,28.39
2023-03-24T09:00:59.455Z,28.40
2023-03-24T09:02:01.732Z,28.42
2023-03-24T09:03:03.705Z,28.43
2023-03-24T09:04:05.661Z,28.42
2023-03-24T09:05:08.171Z,28.45
2023-03-24T09:06:10.589Z,28.47
2023-03-24T09:07:12.933Z,28.46
2023-03-24T09:08:17.976Z,28.48
2023-03-24T09:09:19.764Z,28.48
2023-03-24T09:10:22.616Z,28.48
2023-03-24T09:11:24.859Z,28.49
2023-03-24T09:12:26.861Z,28.53
2023-03-24T09:13:28.863Z,28.50
2023-03-24T09:14:30.977Z,28.53
2023-03-24T09:15:33.392Z,28.53
2023-03-24T09:16:35.248Z,28.55
2023-03-24T09:17:38.064Z,28.57
2023-03-24T09:18:40.313Z,28.57
2023-03-24T09:19:43.364Z,28.57
2023-03-24T09:20:46.749Z,28.56
2023-03-24T09:21:49.151Z,28.55
2023-03-24T09:22:51.270Z,28.55
2023-03-24T09:23:53.112Z,28.53
2023-03-24T09:24:54.877Z,28.53
2023-03-24T09:25:57.197Z,28.50
2023-03-24T09:26:58.994Z,28.49
2023-03-24T09:28:01.687Z,28.49
2023-03-24T09:29:04.029Z,28.48
2023-03-24T09:30:07.946Z,28.46
2023-03-24T09:31:10.655Z,28.45
2023-03-24T09:32:12.533Z,28.45
2023-03-24T09:33:14.428Z,28.43
2023-03-24T09:34:16.581Z,28.39
2023-03-24T09:35:18.496Z,28.41
2023-03-24T09:36:23.297Z,28.41
2023-03-24T09:37:25.566Z,28.39
2023-03-24T09:38:28.349Z,28.35
2023-03-24T09:39:30.179Z,28.38
2023-03-24T09:40:37.907Z,28.38
2023-03-24T09:41:45.613Z,28.36
2023-03-24T09:42:58.125Z,28.37
2023-03-24T09:44:27.420Z,28.41
2023-03-24T09:45:36.629Z,28.35
2023-03-24T09:46:47.733Z,28.33
2023-03-24T09:47:58.820Z,28.35
2023-03-24T09:49:00.845Z,28.29
2023-03-24T09:50:17.847Z,28.33
2023-03-24T09:51:23.811Z,28.30
2023-03-24T09:52:39.975Z,28.32
2023-03-24T09:54:05.683Z,28.32
2023-03-24T09:55:17.738Z,28.29
2023-03-24T09:56:23.589Z,28.28
2023-03-24T09:57:30.680Z,28.29
2023-03-24T09:58:33.746Z,28.23
2023-03-24T09:59:39.742Z,28.25
2023-03-24T10:00:43.040Z,28.24
2023-03-24T10:01:46.077Z,28.23
2023-03-24T10:02:51.062Z,28.25
2023-03-24T10:03:59.190Z,28.25
2023-03-24T10:05:01.345Z,28.24
2023-03-24T10:06:23.013Z,28.26
2023-03-24T10:07:49.291Z,28.28
2023-03-24T10:09:27.207Z,28.28
2023-03-24T10:11:20.000Z,28.28
2023-03-24T10:12:38.383Z,28.26
2023-03-24T10:14:10.538Z,28.26
2023-03-24T10:15:41.205Z,28.25
2023-03-24T10:17:18.136Z,28.25
2023-03-24T10:19:04.750Z,28.23
2023-03-24T10:20:34.591Z,28.23
2023-03-24T10:21:43.801Z,28.20
2023-03-24T10:22:53.121Z,28.20
2023-03-24T10:24:17.138Z,28.22
2023-03-24T10:25:37.493Z,28.21
2023-03-24T10:26:52.660Z,28.22
2023-03-24T10:28:18.650Z,28.23
2023-03-24T10:29:31.026Z,28.24
2023-03-24T10:30:41.413Z,28.23
2023-03-24T10:31:53.029Z,28.24
2023-03-24T10:32:55.043Z,28.21
2023-03-24T10:33:57.737Z,28.21
2023-03-24T10:35:09.861Z,28.21
2023-03-24T10:36:18.132Z,28.23
2023-03-24T10:37:21.117Z,28.24
2023-03-24T10:38:24.132Z,28.24
2023-03-24T10:39:38.081Z,28.24
2023-03-24T10:40:47.745Z,28.24
2023-03-24T10:41:51.568Z,28.22
2023-03-24T10:43:07.143Z,28.21
2023-03-24T10:44:14.087Z,28.19
2023-03-24T10:45:32.746Z,28.19
2023-03-24T10:46:38.263Z,28.13
2023-03-24T10:47:42.626Z,28.09
2023-03-24T10:48:49.725Z,28.08
2023-03-24T10:49:57.993Z,28.06
2023-03-24T10:51:00.228Z,28.02
2023-03-24T10:52:09.380Z,28.00
2023-03-24T10:53:21.091Z,28.02
2023-03-24T10:54:26.423Z,28.00
2023-03-24T10:55:43.563Z,28.02
2023-03-24T10:57:03.724Z,28.04
2023-03-24T10:58:29.267Z,28.05
2023-03-24T10:59:47.054Z,28.04
2023-03-24T11:00:49.575Z,28.02
2023-03-24T11:02:00.675Z,28.04
2023-03-24T11:03:08.550Z,28.05
2023-03-24T11:04:16.632Z,28.07
2023-03-24T11:05:29.593Z,28.06
2023-03-24T11:06:32.460Z,28.07
2023-03-24T11:07:48.913Z,28.10
2023-03-24T11:09:19.509Z,28.14
2023-03-24T11:10:26.057Z,28.13
2023-03-24T11:11:32.095Z,28.04
2023-03-24T11:12:44.160Z,28.11
2023-03-24T11:13:57.577Z,28.14
2023-03-24T11:15:29.265Z,28.18
2023-03-24T11:16:38.835Z,28.16
2023-03-24T11:17:42.362Z,28.17
2023-03-24T11:18:57.218Z,28.18
2023-03-24T11:19:59.151Z,28.17
2023-03-24T11:21:05.220Z,28.18
2023-03-24T11:22:08.780Z,28.18
2023-03-24T11:23:10.615Z,28.18
2023-03-24T11:24:20.159Z,28.20
2023-03-24T11:25:33.813Z,28.22
2023-03-24T11:26:39.231Z,28.22
2023-03-24T11:27:45.417Z,28.22
2023-03-24T11:28:54.733Z,28.25
2023-03-24T11:29:56.601Z,28.24
2023-03-24T11:31:07.964Z,28.27
2023-03-24T11:32:19.809Z,28.27
2023-03-24T11:33:35.707Z,28.29
2023-03-24T11:34:48.876Z,28.28
2023-03-24T11:35:59.463Z,28.27
2023-03-24T11:37:24.711Z,28.32
2023-03-24T11:38:34.910Z,28.32
2023-03-24T11:39:36.821Z,28.26
2023-03-24T11:40:52.117Z,28.28
2023-03-24T11:42:12.095Z,28.34
2023-03-24T11:43:21.410Z,28.34
2023-03-24T11:44:26.041Z,28.33
2023-03-24T11:45:35.604Z,28.34
2023-03-24T11:46:42.067Z,28.34
2023-03-24T11:47:44.360Z,28.34
2023-03-24T11:48:58.781Z,28.37
2023-03-24T11:50:09.561Z,28.38
2023-03-24T11:51:23.232Z,28.39
2023-03-24T11:52:32.489Z,28.39
2023-03-24T11:53:52.417Z,28.42
2023-03-24T11:54:54.359Z,28.37
2023-03-24T11:56:22.257Z,28.43
2023-03-24T11:57:59.709Z,28.45
2023-03-24T11:59:44.906Z,28.47
2023-03-24T12:01:06.295Z,28.44
2023-03-24T12:02:08.011Z,28.41
2023-03-24T12:03:29.969Z,28.40
2023-03-24T12:04:56.564Z,28.47
2023-03-24T12:06:29.660Z,28.48
2023-03-24T12:07:46.523Z,28.43
2023-03-24T12:09:00.451Z,28.43
2023-03-24T12:10:57.962Z,28.49
2023-03-24T12:12:21.207Z,28.47
2023-03-24T12:13:49.636Z,28.47
2023-03-24T12:15:26.599Z,28.47
2023-03-24T12:17:03.608Z,28.50
2023-03-24T12:18:15.783Z,28.47
2023-03-24T12:19:29.700Z,28.46
2023-03-24T12:21:12.480Z,28.51
2023-03-24T12:22:46.663Z,28.49
2023-03-24T12:24:20.076Z,28.49
2023-03-24T12:25:59.992Z,28.48
2023-03-24T12:27:01.983Z,28.46
2023-03-24T12:28:09.386Z,28.47
2023-03-24T12:29:59.889Z,28.52
2023-03-24T12:31:22.760Z,28.49
2023-03-24T12:32:57.519Z,28.50
2023-03-24T12:34:11.059Z,28.48
2023-03-24T12:35:52.149Z,28.49
2023-03-24T12:37:23.153Z,28.49
2023-03-24T12:39:09.776Z,28.55
2023-03-24T12:40:40.229Z,28.52
2023-03-24T12:41:59.783Z,28.50
2023-03-24T12:43:32.153Z,28.52
2023-03-24T12:45:07.813Z,28.51
2023-03-24T12:46:47.595Z,28.51
2023-03-24T12:48:43.456Z,28.53
2023-03-24T12:49:54.094Z,28.48
2023-03-24T12:51:33.188Z,28.48
2023-03-24T12:52:38.110Z,28.46
2023-03-24T12:54:18.781Z,28.47
2023-03-24T12:55:40.343Z,28.45
2023-03-24T12:56:48.649Z,28.44
2023-03-24T12:58:04.089Z,28.43
2023-03-24T12:59:43.970Z,28.46
2023-03-24T13:01:04.494Z,28.45
2023-03-24T13:02:33.731Z,28.46
2023-03-24T13:03:46.845Z,28.41
2023-03-24T13:04:54.060Z,28.40
2023-03-24T13:06:16.209Z,28.40
2023-03-24T13:07:25.724Z,28.42
2023-03-24T13:08:30.407Z,28.37
2023-03-24T13:10:01.706Z,28.42
2023-03-24T13:11:21.854Z,28.39
2023-03-24T13:12:45.033Z,28.37
2023-03-24T13:13:49.874Z,28.34
2023-03-24T13:15:07.167Z,28.37
2023-03-24T13:16:26.984Z,28.37
2023-03-24T13:17:54.420Z,28.36
2023-03-24T13:19:03.173Z,28.33
2023-03-24T13:20:13.493Z,28.34
2023-03-24T13:21:28.497Z,28.35
2023-03-24T13:22:32.246Z,28.32
2023-03-24T13:24:09.164Z,28.38
2023-03-24T13:25:56.307Z,28.36
2023-03-24T13:27:40.083Z,28.38
2023-03-24T13:29:22.979Z,28.36
2023-03-24T13:30:35.238Z,28.32
2023-03-24T13:32:09.036Z,28.31
2023-03-24T13:33:20.617Z,28.31
2023-03-24T13:34:37.986Z,28.29
2023-03-24T13:36:10.153Z,28.32
2023-03-24T13:37:25.463Z,28.29
2023-03-24T13:38:48.269Z,28.28
2023-03-24T13:39:59.812Z,28.27
2023-03-24T13:41:11.097Z,28.26
2023-03-24T13:42:33.169Z,28.29
2023-03-24T13:43:35.163Z,28.24
2023-03-24T13:44:44.319Z,28.25
2023-03-24T13:45:48.164Z,28.24
2023-03-24T13:47:13.120Z,28.27
2023-03-24T13:48:38.767Z,28.29
2023-03-24T13:49:52.273Z,28.24
2023-03-24T13:51:14.341Z,28.26
2023-03-24T13:52:49.624Z,28.30
2023-03-24T13:53:59.621Z,28.26
2023-03-24T13:55:10.357Z,28.25
2023-03-24T13:56:24.772Z,28.26
2023-03-24T13:57:27.994Z,28.23
2023-03-24T13:59:11.274Z,28.31
2023-03-24T14:00:26.365Z,28.27
2023-03-24T14:01:43.936Z,28.28
2023-03-24T14:03:12.135Z,28.26
2023-03-24T14:04:25.626Z,28.25
2023-03-24T14:05:41.173Z,28.25
2023-03-24T14:06:58.927Z,28.23
2023-03-24T14:08:01.075Z,28.23
2023-03-24T14:09:06.227Z,28.22
2023-03-24T14:10:19.040Z,28.23
2023-03-24T14:11:38.212Z,28.24
2023-03-24T14:13:04.795Z,28.27
2023-03-24T14:14:27.752Z,28.27
2023-03-24T14:15:33.755Z,28.25
2023-03-24T14:16:50.229Z,28.26
2023-03-24T14:17:56.739Z,28.25
2023-03-24T14:19:31.973Z,28.29
2023-03-24T14:20:38.858Z,28.26
2023-03-24T14:21:41.529Z,28.23
2023-03-24T14:22:48.385Z,28.25
2023-03-24T14:23:53.080Z,28.23
2023-03-24T14:25:27.731Z,28.27
2023-03-24T14:26:34.877Z,28.28
2023-03-24T14:27:44.068Z,28.30
2023-03-24T14:28:53.868Z,28.28
2023-03-24T14:30:02.885Z,28.28
2023-03-24T14:31:15.501Z,28.28
2023-03-24T14:32:22.862Z,28.28
2023-03-24T14:33:26.803Z,28.27
2023-03-24T14:34:29.963Z,28.26
2023-03-24T14:36:01.624Z,28.33
2023-03-24T14:37:08.265Z,28.31
2023-03-24T14:38:16.104Z,28.31
2023-03-24T14:39:44.242Z,28.34
2023-03-24T14:40:50.881Z,28.32
2023-03-24T14:41:53.646Z,28.28
2023-03-24T14:43:22.726Z,28.37
2023-03-24T14:44:59.428Z,28.36
2023-03-24T14:46:05.096Z,28.33
2023-03-24T14:47:07.353Z,28.28
2023-03-24T14:49:05.326Z,28.38
2023-03-24T14:50:21.947Z,28.34
2023-03-24T14:51:36.815Z,28.32
2023-03-24T14:52:50.205Z,28.33
2023-03-24T14:53:57.795Z,28.31
2023-03-24T14:55:09.977Z,28.32
2023-03-24T14:56:17.464Z,28.35
2023-03-24T14:57:27.491Z,28.43
2023-03-24T14:58:38.992Z,28.49
2023-03-24T15:00:23.316Z,28.62
2023-03-24T15:01:33.635Z,28.60
2023-03-24T15:02:48.321Z,28.62
2023-03-24T15:04:07.658Z,28.67
2023-03-24T15:05:29.696Z,28.64
2023-03-24T15:06:33.210Z,28.62